Eagle San Antonio — 9V9330 — position and weather

sailwx.info

Track history (hours):
 
Tides and Currents Weather Stations Pressure Air Temp Water Temp Dewpoint Dewpoint Depression Visibility Wind Speed Wind Dir Waves Ship Positions

Eagle San Antonio

Last reported at 2017-Nov-05 06:59 UTC. Time now 2017-Nov-18 23:34 UTC.
Position N 38°48' W 075°03'.
Warning: this ship's position is 13 days out of date.

Length 274 m; draft 9.2 m.

Type: Tanker. MMSI: 566453000.

Date/timePositionNaut miles runAvg speedWind from/ knotsBaromVisibWave heightAir tempDewpointWater temp
2017-Nov-05 06:59N 38°48' W 075°03'511.4
2017-Nov-05 06:30N 38°53' W 075°05'816.3
2017-Nov-05 06:01N 39°01' W 075°09'714.9
2017-Nov-05 05:31N 39°07' W 075°13'815.3
2017-Nov-05 05:01N 39°14' W 075°18'714.6
2017-Nov-05 04:31N 39°19' W 075°24'713.6
2017-Nov-05 04:00N 39°24' W 075°30'611.7
2017-Nov-05 03:30N 39°30' W 075°34'611.2
2017-Nov-05 03:00N 39°35' W 075°34'510.1
2017-Nov-05 02:30N 39°40' W 075°32'611.2
2017-Nov-05 02:00N 39°45' W 075°29'5 9.0
2017-Nov-05 01:30N 39°48' W 075°25'0 0.4
2017-Nov-05 01:00N 39°48' W 075°25'0 0.0
2017-Nov-05 00:30N 39°48' W 075°25'0 0.0
2017-Nov-05 00:00N 39°48' W 075°25'0 0.0
2017-Nov-04 23:30N 39°48' W 075°25'0 0.0
2017-Nov-04 23:00N 39°48' W 075°25'0 0.0
2017-Nov-04 22:30N 39°48' W 075°25'0 0.0
2017-Nov-04 22:00N 39°48' W 075°25'0 0.0
2017-Nov-04 21:30N 39°48' W 075°25'0 0.0
2017-Nov-04 21:00N 39°48' W 075°25'0 0.0
2017-Nov-04 20:30N 39°48' W 075°25'0 0.0
2017-Nov-04 20:00N 39°48' W 075°25'0 0.0
2017-Nov-04 19:30N 39°48' W 075°25'0 0.6
2017-Nov-04 19:00N 39°48' W 075°25'3 6.6
2017-Nov-04 18:30N 39°46' W 075°29'4 8.6
2017-Nov-04 18:00N 39°42' W 075°31'611.3
2017-Nov-04 17:30N 39°37' W 075°35'4 7.6
2017-Nov-04 17:00N 39°34' W 075°33'2 4.4
2017-Nov-04 16:30N 39°35' W 075°35'0 0.4
2017-Nov-04 15:58N 39°35' W 075°35'0 0.0
2017-Nov-04 15:28N 39°35' W 075°35'0 0.0
2017-Nov-04 14:58N 39°35' W 075°35'0 0.0
2017-Nov-04 14:28N 39°35' W 075°35'0 0.0
2017-Nov-04 13:58N 39°35' W 075°35'0 0.0
2017-Nov-04 13:28N 39°35' W 075°35'0 0.0
2017-Nov-04 12:58N 39°35' W 075°35'0 0.0
2017-Nov-04 12:28N 39°35' W 075°35'0 0.0
2017-Nov-04 11:58N 39°35' W 075°35'0 0.0
2017-Nov-04 11:28N 39°35' W 075°35'0 0.0
2017-Nov-04 10:58N 39°35' W 075°35'0 0.0
2017-Nov-04 10:28N 39°35' W 075°35'0 0.0
2017-Nov-04 09:58N 39°35' W 075°35'0 0.0
2017-Nov-04 09:28N 39°35' W 075°35'0 0.0
2017-Nov-04 08:58N 39°35' W 075°35'0 0.0
2017-Nov-04 08:28N 39°35' W 075°35'0 0.0
2017-Nov-04 07:55N 39°35' W 075°35'0 0.0
2017-Nov-04 07:28N 39°35' W 075°35'0 0.0
2017-Nov-04 06:58N 39°35' W 075°35'0 0.0
2017-Nov-04 06:28N 39°35' W 075°35'0 0.0
2017-Nov-04 05:58N 39°35' W 075°35'0 0.0
2017-Nov-04 05:28N 39°35' W 075°35'0 0.0
2017-Nov-04 04:58N 39°35' W 075°35'0 0.0
2017-Nov-04 04:28N 39°35' W 075°35'0 0.0
2017-Nov-04 03:58N 39°35' W 075°35'0 0.0
2017-Nov-04 03:28N 39°35' W 075°35'0 0.0
2017-Nov-04 02:58N 39°35' W 075°35'0 0.0
2017-Nov-04 02:28N 39°35' W 075°35'0 0.0
2017-Nov-04 01:58N 39°35' W 075°35'0 0.0
2017-Nov-04 01:28N 39°35' W 075°35'0 0.0
2017-Nov-04 00:58N 39°35' W 075°35'0 0.0
2017-Nov-04 00:28N 39°35' W 075°35'0 0.0
2017-Nov-03 23:58N 39°35' W 075°35'0 0.0
2017-Nov-03 23:28N 39°35' W 075°35'0 0.0
2017-Nov-03 22:58N 39°35' W 075°35'0 0.0
2017-Nov-03 22:28N 39°35' W 075°35'0 0.0
2017-Nov-03 21:58N 39°35' W 075°35'0 0.0
2017-Nov-03 21:28N 39°35' W 075°35'0 0.0
2017-Nov-03 20:58N 39°35' W 075°35'0 0.0
2017-Nov-03 20:28N 39°35' W 075°35'0 0.0
2017-Nov-03 19:58N 39°35' W 075°35'0 0.0
2017-Nov-03 19:28N 39°35' W 075°35'0 0.0
2017-Nov-03 18:58N 39°35' W 075°35'0 0.0
2017-Nov-03 18:28N 39°35' W 075°35'0 0.0
2017-Nov-03 17:58N 39°35' W 075°35'0 0.0
2017-Nov-03 17:28N 39°35' W 075°35'1 1.4
2017-Nov-03 17:01N 39°35' W 075°35'3 5.7
2017-Nov-03 16:30N 39°32' W 075°33'5 9.5
2017-Nov-03 16:00N 39°28' W 075°34'510.6
2017-Nov-03 15:31N 39°24' W 075°29'611.6
2017-Nov-03 15:01N 39°19' W 075°24'612.7
2017-Nov-03 14:30N 39°15' W 075°19'612.8
2017-Nov-03 14:00N 39°09' W 075°15'612.1
2017-Nov-03 13:30N 39°04' W 075°10'612.2
2017-Nov-03 13:00N 38°58' W 075°07'612.4
2017-Nov-03 12:30N 38°53' W 075°05'510.2
2017-Nov-03 12:00N 38°48' W 075°02'4 9.0
2017-Nov-03 11:30N 38°45' W 074°58'5 9.4
2017-Nov-03 10:59N 38°41' W 074°54'4 9.2
2017-Nov-03 10:30N 38°38' W 074°50'4 8.9
2017-Nov-03 10:00N 38°35' W 074°46'5 9.2
2017-Nov-03 09:30N 38°31' W 074°43'3 2.6
2017-Nov-03 08:27N 38°30' W 074°39'0 0.0
2017-Nov-03 07:57N 38°30' W 074°39'0 0.0
2017-Nov-03 06:15N 38°30' W 074°39'0 0.0
2017-Nov-03 06:00N 38°30' W 074°39'0 0.0
2017-Nov-03 05:21N 38°30' W 074°39'0 0.0
2017-Nov-03 03:45N 38°30' W 074°39'0 0.1
2017-Nov-03 03:24N 38°30' W 074°39'0 0.1
2017-Nov-03 03:00N 38°30' W 074°39'3 5.3
2017-Nov-03 02:23N 38°33' W 074°40'3 8.7
2017-Nov-03 02:00N 38°36' W 074°41'1 1.8
2017-Nov-03 01:30N 38°37' W 074°40'1 1.3
2017-Nov-03 00:57N 38°37' W 074°39'0 1.0
2017-Nov-03 00:30N 38°37' W 074°39'0 0.2
2017-Nov-02 23:57N 38°36' W 074°39'0 0.2
2017-Nov-02 23:13N 38°36' W 074°38'0 0.1
2017-Nov-02 22:58N 38°36' W 074°38'1 0.6
2017-Nov-02 22:08N 38°36' W 074°39'1 0.2
2017-Nov-02 16:38N 38°37' W 074°40'0 0.1
2017-Nov-02 16:25N 38°37' W 074°40'0 0.0
2017-Nov-02 14:39N 38°37' W 074°40'0 0.1
2017-Nov-02 14:30N 38°37' W 074°40'0 0.0
2017-Nov-02 13:52N 38°37' W 074°40'0 0.0
2017-Nov-02 13:27N 38°37' W 074°40'0 0.0
2017-Nov-02 12:52N 38°37' W 074°40'0 0.0
2017-Nov-02 12:24N 38°37' W 074°40'0 0.0
2017-Nov-02 11:32N 38°37' W 074°40'0 0.2
2017-Nov-02 11:30N 38°37' W 074°40'0 0.0
2017-Nov-02 11:00N 38°37' W 074°40'0 0.0
2017-Nov-02 10:30N 38°37' W 074°40'0 0.0
2017-Nov-02 09:57N 38°37' W 074°40'0 0.0
2017-Nov-02 09:28N 38°37' W 074°40'0 0.0
2017-Nov-02 08:56N 38°37' W 074°40'0 0.0
2017-Nov-02 08:26N 38°37' W 074°40'0 0.0
2017-Nov-02 08:00N 38°37' W 074°40'0 0.5
2017-Nov-02 07:31N 38°37' W 074°40'1 1.8
2017-Nov-02 07:00N 38°37' W 074°39'3 5.1
2017-Nov-02 06:30N 38°35' W 074°37'3 6.1
2017-Nov-02 06:00N 38°32' W 074°34'3 5.5
2017-Nov-02 05:30N 38°30' W 074°32'2 3.1
2017-Nov-02 05:01N 38°29' W 074°31'2 3.2
2017-Nov-02 04:30N 38°27' W 074°31'1 1.7
2017-Nov-02 04:00N 38°28' W 074°31'1 1.3
2017-Nov-02 03:30N 38°29' W 074°31'1 1.6
2017-Nov-02 03:00N 38°30' W 074°30'1 1.9
2017-Nov-02 02:30N 38°31' W 074°30'1 1.5
2017-Nov-02 01:58N 38°31' W 074°29'1 1.5
2017-Nov-02 01:30N 38°32' W 074°29'  
2017-Oct-30 02:46N 38°31' W 074°32'1 2.0
2017-Oct-30 02:30N 38°31' W 074°31'1 1.8
2017-Oct-30 01:57N 38°31' W 074°30'1 1.0
2017-Oct-30 01:27N 38°32' W 074°29'8 0.5
2017-Oct-29 11:23N 38°39' W 074°29'1 2.9
2017-Oct-29 10:54N 38°41' W 074°28'1 1.8
2017-Oct-29 10:29N 38°41' W 074°28'1 1.2
2017-Oct-29 10:00N 38°41' W 074°27'0 0.9
2017-Oct-29 09:30N 38°41' W 074°27'0 0.8
2017-Oct-29 09:00N 38°40' W 074°26'0 0.9
2017-Oct-29 08:30N 38°40' W 074°26'0 0.8
2017-Oct-29 08:00N 38°39' W 074°26'0 1.0
2017-Oct-29 07:30N 38°39' W 074°26'0 0.6
2017-Oct-29 06:50N 38°39' W 074°26'0 0.2
2017-Oct-29 06:30N 38°39' W 074°26'0 0.9
2017-Oct-29 06:00N 38°39' W 074°26'0 0.1
2017-Oct-29 05:12N 38°39' W 074°26'0 0.0
2017-Oct-29 04:57N 38°39' W 074°26'0 0.0
2017-Oct-29 04:23N 38°39' W 074°26'0 0.0
2017-Oct-29 03:37N 38°39' W 074°26'7 0.6
2017-Oct-28 16:09N 38°34' W 074°22'1 5.5
2017-Oct-28 15:58N 38°33' W 074°22'3 4.8
2017-Oct-28 15:26N 38°30' W 074°20'2 2.8
2017-Oct-28 14:53N 38°29' W 074°21'4 5.0
2017-Oct-28 14:09N 38°29' W 074°26'0 1.5
2017-Oct-28 14:00N 38°29' W 074°26'1 1.5
2017-Oct-28 13:30N 38°29' W 074°27'2 3.8
2017-Oct-28 13:00N 38°28' W 074°29'0 0.8
2017-Oct-28 12:29N 38°27' W 074°28'0 1.0
2017-Oct-28 11:59N 38°27' W 074°28'1 2.2
2017-Oct-28 11:23N 38°29' W 074°27'0 0.6
2017-Oct-28 11:00N 38°29' W 074°27'0 0.0
2017-Oct-28 10:27N 38°29' W 074°27'0 0.0
2017-Oct-28 09:59N 38°29' W 074°27'0 0.0
2017-Oct-28 09:30N 38°29' W 074°27'0 0.0
2017-Oct-28 09:00N 38°29' W 074°27'0 0.1
2017-Oct-28 08:12N 38°29' W 074°27'0 0.0
2017-Oct-28 07:39N 38°29' W 074°27'0 0.0
2017-Oct-28 07:24N 38°29' W 074°27'0 0.1
2017-Oct-28 07:00N 38°29' W 074°27'0 0.1
2017-Oct-28 06:27N 38°29' W 074°27'0 0.0
2017-Oct-28 04:21N 38°29' W 074°27'0 0.0
2017-Oct-28 03:57N 38°29' W 074°27'0 0.0
2017-Oct-28 03:24N 38°29' W 074°27'0 0.0
2017-Oct-28 02:57N 38°29' W 074°27'  
Track history (hours):
 
Tides and Currents Weather Stations Pressure Air Temp Water Temp Dewpoint Dewpoint Depression Visibility Wind Speed Wind Dir Waves Ship Positions

Eagle San Antonio

Last reported at 2017-Nov-05 06:59 UTC. Time now 2017-Nov-18 23:34 UTC.
Position N 38°48' W 075°03'.
Warning: this ship's position is 13 days out of date.

Length 274 m; draft 9.2 m.

Type: Tanker. MMSI: 566453000.

Date/timePositionNaut miles runAvg speedWind from/ knotsBaromVisibWave heightAir tempDewpointWater temp
2017-Nov-05 06:59N 38°48' W 075°03'511.4
2017-Nov-05 06:30N 38°53' W 075°05'816.3
2017-Nov-05 06:01N 39°01' W 075°09'714.9
2017-Nov-05 05:31N 39°07' W 075°13'815.3
2017-Nov-05 05:01N 39°14' W 075°18'714.6
2017-Nov-05 04:31N 39°19' W 075°24'713.6
2017-Nov-05 04:00N 39°24' W 075°30'611.7
2017-Nov-05 03:30N 39°30' W 075°34'611.2
2017-Nov-05 03:00N 39°35' W 075°34'510.1
2017-Nov-05 02:30N 39°40' W 075°32'611.2
2017-Nov-05 02:00N 39°45' W 075°29'5 9.0
2017-Nov-05 01:30N 39°48' W 075°25'0 0.4
2017-Nov-05 01:00N 39°48' W 075°25'0 0.0
2017-Nov-05 00:30N 39°48' W 075°25'0 0.0
2017-Nov-05 00:00N 39°48' W 075°25'0 0.0
2017-Nov-04 23:30N 39°48' W 075°25'0 0.0
2017-Nov-04 23:00N 39°48' W 075°25'0 0.0
2017-Nov-04 22:30N 39°48' W 075°25'0 0.0
2017-Nov-04 22:00N 39°48' W 075°25'0 0.0
2017-Nov-04 21:30N 39°48' W 075°25'0 0.0
2017-Nov-04 21:00N 39°48' W 075°25'0 0.0
2017-Nov-04 20:30N 39°48' W 075°25'0 0.0
2017-Nov-04 20:00N 39°48' W 075°25'0 0.0
2017-Nov-04 19:30N 39°48' W 075°25'0 0.6
2017-Nov-04 19:00N 39°48' W 075°25'3 6.6
2017-Nov-04 18:30N 39°46' W 075°29'4 8.6
2017-Nov-04 18:00N 39°42' W 075°31'611.3
2017-Nov-04 17:30N 39°37' W 075°35'4 7.6
2017-Nov-04 17:00N 39°34' W 075°33'2 4.4
2017-Nov-04 16:30N 39°35' W 075°35'0 0.4
2017-Nov-04 15:58N 39°35' W 075°35'0 0.0
2017-Nov-04 15:28N 39°35' W 075°35'0 0.0
2017-Nov-04 14:58N 39°35' W 075°35'0 0.0
2017-Nov-04 14:28N 39°35' W 075°35'0 0.0
2017-Nov-04 13:58N 39°35' W 075°35'0 0.0
2017-Nov-04 13:28N 39°35' W 075°35'0 0.0
2017-Nov-04 12:58N 39°35' W 075°35'0 0.0
2017-Nov-04 12:28N 39°35' W 075°35'0 0.0
2017-Nov-04 11:58N 39°35' W 075°35'0 0.0
2017-Nov-04 11:28N 39°35' W 075°35'0 0.0
2017-Nov-04 10:58N 39°35' W 075°35'0 0.0
2017-Nov-04 10:28N 39°35' W 075°35'0 0.0
2017-Nov-04 09:58N 39°35' W 075°35'0 0.0
2017-Nov-04 09:28N 39°35' W 075°35'0 0.0
2017-Nov-04 08:58N 39°35' W 075°35'0 0.0
2017-Nov-04 08:28N 39°35' W 075°35'0 0.0
2017-Nov-04 07:55N 39°35' W 075°35'0 0.0
2017-Nov-04 07:28N 39°35' W 075°35'0 0.0
2017-Nov-04 06:58N 39°35' W 075°35'0 0.0
2017-Nov-04 06:28N 39°35' W 075°35'0 0.0
2017-Nov-04 05:58N 39°35' W 075°35'0 0.0
2017-Nov-04 05:28N 39°35' W 075°35'0 0.0
2017-Nov-04 04:58N 39°35' W 075°35'0 0.0
2017-Nov-04 04:28N 39°35' W 075°35'0 0.0
2017-Nov-04 03:58N 39°35' W 075°35'0 0.0
2017-Nov-04 03:28N 39°35' W 075°35'0 0.0
2017-Nov-04 02:58N 39°35' W 075°35'0 0.0
2017-Nov-04 02:28N 39°35' W 075°35'0 0.0
2017-Nov-04 01:58N 39°35' W 075°35'0 0.0
2017-Nov-04 01:28N 39°35' W 075°35'0 0.0
2017-Nov-04 00:58N 39°35' W 075°35'0 0.0
2017-Nov-04 00:28N 39°35' W 075°35'0 0.0
2017-Nov-03 23:58N 39°35' W 075°35'0 0.0
2017-Nov-03 23:28N 39°35' W 075°35'0 0.0
2017-Nov-03 22:58N 39°35' W 075°35'0 0.0
2017-Nov-03 22:28N 39°35' W 075°35'0 0.0
2017-Nov-03 21:58N 39°35' W 075°35'0 0.0
2017-Nov-03 21:28N 39°35' W 075°35'0 0.0
2017-Nov-03 20:58N 39°35' W 075°35'0 0.0
2017-Nov-03 20:28N 39°35' W 075°35'0 0.0
2017-Nov-03 19:58N 39°35' W 075°35'0 0.0
2017-Nov-03 19:28N 39°35' W 075°35'0 0.0
2017-Nov-03 18:58N 39°35' W 075°35'0 0.0
2017-Nov-03 18:28N 39°35' W 075°35'0 0.0
2017-Nov-03 17:58N 39°35' W 075°35'0 0.0
2017-Nov-03 17:28N 39°35' W 075°35'1 1.4
2017-Nov-03 17:01N 39°35' W 075°35'3 5.7
2017-Nov-03 16:30N 39°32' W 075°33'5 9.5
2017-Nov-03 16:00N 39°28' W 075°34'510.6
2017-Nov-03 15:31N 39°24' W 075°29'611.6
2017-Nov-03 15:01N 39°19' W 075°24'612.7
2017-Nov-03 14:30N 39°15' W 075°19'612.8
2017-Nov-03 14:00N 39°09' W 075°15'612.1
2017-Nov-03 13:30N 39°04' W 075°10'612.2
2017-Nov-03 13:00N 38°58' W 075°07'612.4
2017-Nov-03 12:30N 38°53' W 075°05'510.2
2017-Nov-03 12:00N 38°48' W 075°02'4 9.0
2017-Nov-03 11:30N 38°45' W 074°58'5 9.4
2017-Nov-03 10:59N 38°41' W 074°54'4 9.2
2017-Nov-03 10:30N 38°38' W 074°50'4 8.9
2017-Nov-03 10:00N 38°35' W 074°46'5 9.2
2017-Nov-03 09:30N 38°31' W 074°43'3 2.6
2017-Nov-03 08:27N 38°30' W 074°39'0 0.0
2017-Nov-03 07:57N 38°30' W 074°39'0 0.0
2017-Nov-03 06:15N 38°30' W 074°39'0 0.0
2017-Nov-03 06:00N 38°30' W 074°39'0 0.0
2017-Nov-03 05:21N 38°30' W 074°39'0 0.0
2017-Nov-03 03:45N 38°30' W 074°39'0 0.1
2017-Nov-03 03:24N 38°30' W 074°39'0 0.1
2017-Nov-03 03:00N 38°30' W 074°39'3 5.3
2017-Nov-03 02:23N 38°33' W 074°40'3 8.7
2017-Nov-03 02:00N 38°36' W 074°41'1 1.8
2017-Nov-03 01:30N 38°37' W 074°40'1 1.3
2017-Nov-03 00:57N 38°37' W 074°39'0 1.0
2017-Nov-03 00:30N 38°37' W 074°39'0 0.2
2017-Nov-02 23:57N 38°36' W 074°39'0 0.2
2017-Nov-02 23:13N 38°36' W 074°38'0 0.1
2017-Nov-02 22:58N 38°36' W 074°38'1 0.6
2017-Nov-02 22:08N 38°36' W 074°39'1 0.2
2017-Nov-02 16:38N 38°37' W 074°40'0 0.1
2017-Nov-02 16:25N 38°37' W 074°40'0 0.0
2017-Nov-02 14:39N 38°37' W 074°40'0 0.1
2017-Nov-02 14:30N 38°37' W 074°40'0 0.0
2017-Nov-02 13:52N 38°37' W 074°40'0 0.0
2017-Nov-02 13:27N 38°37' W 074°40'0 0.0
2017-Nov-02 12:52N 38°37' W 074°40'0 0.0
2017-Nov-02 12:24N 38°37' W 074°40'0 0.0
2017-Nov-02 11:32N 38°37' W 074°40'0 0.2
2017-Nov-02 11:30N 38°37' W 074°40'0 0.0
2017-Nov-02 11:00N 38°37' W 074°40'0 0.0
2017-Nov-02 10:30N 38°37' W 074°40'0 0.0
2017-Nov-02 09:57N 38°37' W 074°40'0 0.0
2017-Nov-02 09:28N 38°37' W 074°40'0 0.0
2017-Nov-02 08:56N 38°37' W 074°40'0 0.0
2017-Nov-02 08:26N 38°37' W 074°40'0 0.0
2017-Nov-02 08:00N 38°37' W 074°40'0 0.5
2017-Nov-02 07:31N 38°37' W 074°40'1 1.8
2017-Nov-02 07:00N 38°37' W 074°39'3 5.1
2017-Nov-02 06:30N 38°35' W 074°37'3 6.1
2017-Nov-02 06:00N 38°32' W 074°34'3 5.5
2017-Nov-02 05:30N 38°30' W 074°32'2 3.1
2017-Nov-02 05:01N 38°29' W 074°31'2 3.2
2017-Nov-02 04:30N 38°27' W 074°31'1 1.7
2017-Nov-02 04:00N 38°28' W 074°31'1 1.3
2017-Nov-02 03:30N 38°29' W 074°31'1 1.6
2017-Nov-02 03:00N 38°30' W 074°30'1 1.9
2017-Nov-02 02:30N 38°31' W 074°30'1 1.5
2017-Nov-02 01:58N 38°31' W 074°29'1 1.5
2017-Nov-02 01:30N 38°32' W 074°29'  
2017-Oct-30 02:46N 38°31' W 074°32'1 2.0
2017-Oct-30 02:30N 38°31' W 074°31'1 1.8
2017-Oct-30 01:57N 38°31' W 074°30'1 1.0
2017-Oct-30 01:27N 38°32' W 074°29'8 0.5
2017-Oct-29 11:23N 38°39' W 074°29'1 2.9
2017-Oct-29 10:54N 38°41' W 074°28'1 1.8
2017-Oct-29 10:29N 38°41' W 074°28'1 1.2
2017-Oct-29 10:00N 38°41' W 074°27'0 0.9
2017-Oct-29 09:30N 38°41' W 074°27'0 0.8
2017-Oct-29 09:00N 38°40' W 074°26'0 0.9
2017-Oct-29 08:30N 38°40' W 074°26'0 0.8
2017-Oct-29 08:00N 38°39' W 074°26'0 1.0
2017-Oct-29 07:30N 38°39' W 074°26'0 0.6
2017-Oct-29 06:50N 38°39' W 074°26'0 0.2
2017-Oct-29 06:30N 38°39' W 074°26'0 0.9
2017-Oct-29 06:00N 38°39' W 074°26'0 0.1
2017-Oct-29 05:12N 38°39' W 074°26'0 0.0
2017-Oct-29 04:57N 38°39' W 074°26'0 0.0
2017-Oct-29 04:23N 38°39' W 074°26'0 0.0
2017-Oct-29 03:37N 38°39' W 074°26'7 0.6
2017-Oct-28 16:09N 38°34' W 074°22'1 5.5
2017-Oct-28 15:58N 38°33' W 074°22'3 4.8
2017-Oct-28 15:26N 38°30' W 074°20'2 2.8
2017-Oct-28 14:53N 38°29' W 074°21'4 5.0
2017-Oct-28 14:09N 38°29' W 074°26'0 1.5
2017-Oct-28 14:00N 38°29' W 074°26'1 1.5
2017-Oct-28 13:30N 38°29' W 074°27'2 3.8
2017-Oct-28 13:00N 38°28' W 074°29'0 0.8
2017-Oct-28 12:29N 38°27' W 074°28'0 1.0
2017-Oct-28 11:59N 38°27' W 074°28'1 2.2
2017-Oct-28 11:23N 38°29' W 074°27'0 0.6
2017-Oct-28 11:00N 38°29' W 074°27'0 0.0
2017-Oct-28 10:27N 38°29' W 074°27'0 0.0
2017-Oct-28 09:59N 38°29' W 074°27'0 0.0
2017-Oct-28 09:30N 38°29' W 074°27'0 0.0
2017-Oct-28 09:00N 38°29' W 074°27'0 0.1
2017-Oct-28 08:12N 38°29' W 074°27'0 0.0
2017-Oct-28 07:39N 38°29' W 074°27'0 0.0
2017-Oct-28 07:24N 38°29' W 074°27'0 0.1
2017-Oct-28 07:00N 38°29' W 074°27'0 0.1
2017-Oct-28 06:27N 38°29' W 074°27'0 0.0
2017-Oct-28 04:21N 38°29' W 074°27'0 0.0
2017-Oct-28 03:57N 38°29' W 074°27'0 0.0
2017-Oct-28 03:24N 38°29' W 074°27'0 0.0
2017-Oct-28 02:57N 38°29' W 074°27'  

Dump ship's entire track history